sensor_id;sensor_type;location;lat;lon;timestamp;P1;P2;P0
55591;PMS5003;41454;53.396;-1.510;2023-08-08T00:00:12;3;3;
55591;PMS5003;41454;53.396;-1.510;2023-08-08T00:02:39;2;2;
55591;PMS5003;41454;53.396;-1.510;2023-08-08T00:05:07;4;4;
55591;PMS5003;41454;53.396;-1.510;2023-08-08T00:07:34;2;2;
55591;PMS5003;41454;53.396;-1.510;2023-08-08T00:10:02;3;3;
55591;PMS5003;41454;53.396;-1.510;2023-08-08T00:12:30;2;2;
55591;PMS5003;41454;53.396;-1.510;2023-08-08T00:14:56;2;2;
55591;PMS5003;41454;53.396;-1.510;2023-08-08T00:17:23;4;4;
55591;PMS5003;41454;53.396;-1.510;2023-08-08T00:19:51;4;4;
55591;PMS5003;41454;53.396;-1.510;2023-08-08T00:22:17;3;3;
55591;PMS5003;41454;53.396;-1.510;2023-08-08T00:24:44;2;2;
55591;PMS5003;41454;53.396;-1.510;2023-08-08T00:27:11;3;3;
55591;PMS5003;41454;53.396;-1.510;2023-08-08T00:29:37;3;3;
55591;PMS5003;41454;53.396;-1.510;2023-08-08T00:32:04;6;4;
55591;PMS5003;41454;53.396;-1.510;2023-08-08T00:34:32;3;3;
55591;PMS5003;41454;53.396;-1.510;2023-08-08T00:36:58;3;3;
55591;PMS5003;41454;53.396;-1.510;2023-08-08T00:39:25;4;2;
55591;PMS5003;41454;53.396;-1.510;2023-08-08T00:41:52;3;3;
55591;PMS5003;41454;53.396;-1.510;2023-08-08T00:44:18;3;3;
55591;PMS5003;41454;53.396;-1.510;2023-08-08T00:46:45;3;3;
55591;PMS5003;41454;53.396;-1.510;2023-08-08T00:49:13;3;1;
55591;PMS5003;41454;53.396;-1.510;2023-08-08T00:51:40;2;2;
55591;PMS5003;41454;53.396;-1.510;2023-08-08T00:54:07;5;5;
55591;PMS5003;41454;53.396;-1.510;2023-08-08T00:56:36;3;3;
55591;PMS5003;41454;53.396;-1.510;2023-08-08T00:59:03;3;3;
55591;PMS5003;41454;53.396;-1.510;2023-08-08T01:01:30;3;3;
55591;PMS5003;41454;53.396;-1.510;2023-08-08T01:03:57;4;3;
55591;PMS5003;41454;53.396;-1.510;2023-08-08T01:06:29;2;2;
55591;PMS5003;41454;53.396;-1.510;2023-08-08T01:09:04;6;5;
55591;PMS5003;41454;53.396;-1.510;2023-08-08T01:11:38;5;4;
55591;PMS5003;41454;53.396;-1.510;2023-08-08T01:14:06;5;5;
55591;PMS5003;41454;53.396;-1.510;2023-08-08T01:16:35;6;6;
55591;PMS5003;41454;53.396;-1.510;2023-08-08T01:19:02;5;5;
55591;PMS5003;41454;53.396;-1.510;2023-08-08T01:21:32;6;6;
55591;PMS5003;41454;53.396;-1.510;2023-08-08T01:24:11;5;5;
55591;PMS5003;41454;53.396;-1.510;2023-08-08T01:26:41;4;4;
55591;PMS5003;41454;53.396;-1.510;2023-08-08T01:29:08;6;6;
55591;PMS5003;41454;53.396;-1.510;2023-08-08T01:31:35;6;6;
55591;PMS5003;41454;53.396;-1.510;2023-08-08T01:34:02;4;4;
55591;PMS5003;41454;53.396;-1.510;2023-08-08T01:36:30;7;5;
55591;PMS5003;41454;53.396;-1.510;2023-08-08T01:39:03;4;4;
55591;PMS5003;41454;53.396;-1.510;2023-08-08T01:41:38;3;3;
55591;PMS5003;41454;53.396;-1.510;2023-08-08T01:44:08;5;5;
55591;PMS5003;41454;53.396;-1.510;2023-08-08T01:46:36;3;3;
55591;PMS5003;41454;53.396;-1.510;2023-08-08T01:49:03;3;3;
55591;PMS5003;41454;53.396;-1.510;2023-08-08T01:51:30;4;4;
55591;PMS5003;41454;53.396;-1.510;2023-08-08T01:53:58;1;1;
55591;PMS5003;41454;53.396;-1.510;2023-08-08T01:56:24;4;4;
55591;PMS5003;41454;53.396;-1.510;2023-08-08T01:58:51;1;1;
55591;PMS5003;41454;53.396;-1.510;2023-08-08T02:01:18;2;2;
55591;PMS5003;41454;53.396;-1.510;2023-08-08T02:03:45;3;3;
55591;PMS5003;41454;53.396;-1.510;2023-08-08T02:06:12;1;1;
55591;PMS5003;41454;53.396;-1.510;2023-08-08T02:08:39;4;3;
55591;PMS5003;41454;53.396;-1.510;2023-08-08T02:11:05;3;3;
55591;PMS5003;41454;53.396;-1.510;2023-08-08T02:13:32;2;2;
55591;PMS5003;41454;53.396;-1.510;2023-08-08T02:15:59;1;1;
55591;PMS5003;41454;53.396;-1.510;2023-08-08T02:18:26;4;4;
55591;PMS5003;41454;53.396;-1.510;2023-08-08T02:20:53;2;2;
55591;PMS5003;41454;53.396;-1.510;2023-08-08T02:23:20;2;1;
55591;PMS5003;41454;53.396;-1.510;2023-08-08T02:25:47;2;2;
55591;PMS5003;41454;53.396;-1.510;2023-08-08T02:28:15;2;2;
55591;PMS5003;41454;53.396;-1.510;2023-08-08T02:30:42;2;2;
55591;PMS5003;41454;53.396;-1.510;2023-08-08T02:33:08;1;1;
55591;PMS5003;41454;53.396;-1.510;2023-08-08T02:35:36;3;2;
55591;PMS5003;41454;53.396;-1.510;2023-08-08T02:38:03;1;1;
55591;PMS5003;41454;53.396;-1.510;2023-08-08T02:40:31;2;2;
55591;PMS5003;41454;53.396;-1.510;2023-08-08T02:42:58;2;2;
55591;PMS5003;41454;53.396;-1.510;2023-08-08T02:45:24;0;0;
55591;PMS5003;41454;53.396;-1.510;2023-08-08T02:47:52;5;3;
55591;PMS5003;41454;53.396;-1.510;2023-08-08T02:50:19;4;4;
55591;PMS5003;41454;53.396;-1.510;2023-08-08T02:52:46;3;3;
55591;PMS5003;41454;53.396;-1.510;2023-08-08T02:55:14;2;2;
55591;PMS5003;41454;53.396;-1.510;2023-08-08T02:57:41;3;2;
55591;PMS5003;41454;53.396;-1.510;2023-08-08T03:00:08;2;2;
55591;PMS5003;41454;53.396;-1.510;2023-08-08T03:02:36;4;4;
55591;PMS5003;41454;53.396;-1.510;2023-08-08T03:05:04;2;2;
55591;PMS5003;41454;53.396;-1.510;2023-08-08T03:07:32;5;5;
55591;PMS5003;41454;53.396;-1.510;2023-08-08T03:09:59;3;3;
55591;PMS5003;41454;53.396;-1.510;2023-08-08T03:12:27;4;4;
55591;PMS5003;41454;53.396;-1.510;2023-08-08T03:14:53;7;4;
55591;PMS5003;41454;53.396;-1.510;2023-08-08T03:17:21;4;4;
55591;PMS5003;41454;53.396;-1.510;2023-08-08T03:19:48;3;3;
55591;PMS5003;41454;53.396;-1.510;2023-08-08T03:22:14;4;4;
55591;PMS5003;41454;53.396;-1.510;2023-08-08T03:24:41;6;5;
55591;PMS5003;41454;53.396;-1.510;2023-08-08T03:27:08;3;3;
55591;PMS5003;41454;53.396;-1.510;2023-08-08T03:29:35;5;4;
55591;PMS5003;41454;53.396;-1.510;2023-08-08T03:32:02;6;5;
55591;PMS5003;41454;53.396;-1.510;2023-08-08T03:34:30;3;3;
55591;PMS5003;41454;53.396;-1.510;2023-08-08T03:36:56;3;3;
55591;PMS5003;41454;53.396;-1.510;2023-08-08T03:39:23;3;3;
55591;PMS5003;41454;53.396;-1.510;2023-08-08T03:41:50;3;3;
55591;PMS5003;41454;53.396;-1.510;2023-08-08T03:44:17;4;4;
55591;PMS5003;41454;53.396;-1.510;2023-08-08T03:46:44;4;4;
55591;PMS5003;41454;53.396;-1.510;2023-08-08T03:49:11;5;4;
55591;PMS5003;41454;53.396;-1.510;2023-08-08T03:51:38;5;5;
55591;PMS5003;41454;53.396;-1.510;2023-08-08T03:54:04;2;2;
55591;PMS5003;41454;53.396;-1.510;2023-08-08T03:56:31;5;4;
55591;PMS5003;41454;53.396;-1.510;2023-08-08T03:58:58;3;3;
55591;PMS5003;41454;53.396;-1.510;2023-08-08T04:01:25;2;2;
55591;PMS5003;41454;53.396;-1.510;2023-08-08T04:03:51;5;4;
55591;PMS5003;41454;53.396;-1.510;2023-08-08T04:06:18;5;5;
55591;PMS5003;41454;53.396;-1.510;2023-08-08T04:08:45;6;4;
55591;PMS5003;41454;53.396;-1.510;2023-08-08T04:11:11;3;3;
55591;PMS5003;41454;53.396;-1.510;2023-08-08T04:13:38;4;4;
55591;PMS5003;41454;53.396;-1.510;2023-08-08T04:16:06;6;4;
55591;PMS5003;41454;53.396;-1.510;2023-08-08T04:18:32;4;4;
55591;PMS5003;41454;53.396;-1.510;2023-08-08T04:20:59;3;3;
55591;PMS5003;41454;53.396;-1.510;2023-08-08T04:23:26;3;3;
55591;PMS5003;41454;53.396;-1.510;2023-08-08T04:25:53;5;5;
55591;PMS5003;41454;53.396;-1.510;2023-08-08T04:28:20;4;4;
55591;PMS5003;41454;53.396;-1.510;2023-08-08T04:30:47;4;3;
55591;PMS5003;41454;53.396;-1.510;2023-08-08T04:33:14;7;6;
55591;PMS5003;41454;53.396;-1.510;2023-08-08T04:35:41;6;6;
55591;PMS5003;41454;53.396;-1.510;2023-08-08T04:38:08;5;5;
55591;PMS5003;41454;53.396;-1.510;2023-08-08T04:40:35;5;4;
55591;PMS5003;41454;53.396;-1.510;2023-08-08T04:43:03;4;4;
55591;PMS5003;41454;53.396;-1.510;2023-08-08T04:45:30;6;5;
55591;PMS5003;41454;53.396;-1.510;2023-08-08T04:47:57;7;6;
55591;PMS5003;41454;53.396;-1.510;2023-08-08T04:50:23;6;6;
55591;PMS5003;41454;53.396;-1.510;2023-08-08T04:52:51;10;9;
55591;PMS5003;41454;53.396;-1.510;2023-08-08T04:55:18;8;8;
55591;PMS5003;41454;53.396;-1.510;2023-08-08T04:57:44;8;8;
55591;PMS5003;41454;53.396;-1.510;2023-08-08T05:00:12;8;8;
55591;PMS5003;41454;53.396;-1.510;2023-08-08T05:02:40;8;7;
55591;PMS5003;41454;53.396;-1.510;2023-08-08T05:05:07;8;8;
55591;PMS5003;41454;53.396;-1.510;2023-08-08T05:07:34;9;9;
55591;PMS5003;41454;53.396;-1.510;2023-08-08T05:10:02;13;9;
55591;PMS5003;41454;53.396;-1.510;2023-08-08T05:12:30;11;10;
55591;PMS5003;41454;53.396;-1.510;2023-08-08T05:14:57;11;11;
55591;PMS5003;41454;53.396;-1.510;2023-08-08T05:17:24;9;9;
55591;PMS5003;41454;53.396;-1.510;2023-08-08T05:19:51;11;11;
55591;PMS5003;41454;53.396;-1.510;2023-08-08T05:22:18;9;8;
55591;PMS5003;41454;53.396;-1.510;2023-08-08T05:24:45;8;8;
55591;PMS5003;41454;53.396;-1.510;2023-08-08T05:27:12;14;10;
55591;PMS5003;41454;53.396;-1.510;2023-08-08T05:29:39;12;12;
55591;PMS5003;41454;53.396;-1.510;2023-08-08T05:32:06;11;10;
55591;PMS5003;41454;53.396;-1.510;2023-08-08T05:34:33;14;13;
55591;PMS5003;41454;53.396;-1.510;2023-08-08T05:37:01;12;12;
55591;PMS5003;41454;53.396;-1.510;2023-08-08T05:39:29;10;10;
55591;PMS5003;41454;53.396;-1.510;2023-08-08T05:41:57;13;12;
55591;PMS5003;41454;53.396;-1.510;2023-08-08T05:44:23;15;14;
55591;PMS5003;41454;53.396;-1.510;2023-08-08T05:46:50;12;11;
55591;PMS5003;41454;53.396;-1.510;2023-08-08T05:49:18;11;11;
55591;PMS5003;41454;53.396;-1.510;2023-08-08T05:51:45;13;13;
55591;PMS5003;41454;53.396;-1.510;2023-08-08T05:54:12;14;11;
55591;PMS5003;41454;53.396;-1.510;2023-08-08T05:56:39;14;13;
55591;PMS5003;41454;53.396;-1.510;2023-08-08T05:59:06;13;13;
55591;PMS5003;41454;53.396;-1.510;2023-08-08T06:01:33;13;13;
55591;PMS5003;41454;53.396;-1.510;2023-08-08T06:04:00;13;13;
55591;PMS5003;41454;53.396;-1.510;2023-08-08T06:06:27;15;15;
55591;PMS5003;41454;53.396;-1.510;2023-08-08T06:08:54;13;13;
55591;PMS5003;41454;53.396;-1.510;2023-08-08T06:11:21;16;14;
55591;PMS5003;41454;53.396;-1.510;2023-08-08T06:13:48;13;13;
55591;PMS5003;41454;53.396;-1.510;2023-08-08T06:16:15;13;13;
55591;PMS5003;41454;53.396;-1.510;2023-08-08T06:18:43;12;12;
55591;PMS5003;41454;53.396;-1.510;2023-08-08T06:21:10;11;11;
55591;PMS5003;41454;53.396;-1.510;2023-08-08T06:23:38;11;11;
55591;PMS5003;41454;53.396;-1.510;2023-08-08T06:26:04;11;11;
55591;PMS5003;41454;53.396;-1.510;2023-08-08T06:28:32;14;11;
55591;PMS5003;41454;53.396;-1.510;2023-08-08T06:30:59;14;13;
55591;PMS5003;41454;53.396;-1.510;2023-08-08T06:33:27;14;11;
55591;PMS5003;41454;53.396;-1.510;2023-08-08T06:35:54;8;8;
55591;PMS5003;41454;53.396;-1.510;2023-08-08T06:38:22;12;9;
55591;PMS5003;41454;53.396;-1.510;2023-08-08T06:40:49;9;9;
55591;PMS5003;41454;53.396;-1.510;2023-08-08T06:43:17;9;8;
55591;PMS5003;41454;53.396;-1.510;2023-08-08T06:45:44;14;10;
55591;PMS5003;41454;53.396;-1.510;2023-08-08T06:48:12;8;8;
55591;PMS5003;41454;53.396;-1.510;2023-08-08T06:50:39;9;9;
55591;PMS5003;41454;53.396;-1.510;2023-08-08T06:53:06;8;8;
55591;PMS5003;41454;53.396;-1.510;2023-08-08T06:55:34;9;9;
55591;PMS5003;41454;53.396;-1.510;2023-08-08T06:58:00;9;8;
55591;PMS5003;41454;53.396;-1.510;2023-08-08T07:00:28;6;6;
55591;PMS5003;41454;53.396;-1.510;2023-08-08T07:02:55;8;8;
55591;PMS5003;41454;53.396;-1.510;2023-08-08T07:05:22;9;9;
55591;PMS5003;41454;53.396;-1.510;2023-08-08T07:07:50;9;7;
55591;PMS5003;41454;53.396;-1.510;2023-08-08T07:10:17;7;7;
55591;PMS5003;41454;53.396;-1.510;2023-08-08T07:12:45;10;9;
55591;PMS5003;41454;53.396;-1.510;2023-08-08T07:15:12;9;8;
55591;PMS5003;41454;53.396;-1.510;2023-08-08T07:17:40;8;8;
55591;PMS5003;41454;53.396;-1.510;2023-08-08T07:20:07;9;7;
55591;PMS5003;41454;53.396;-1.510;2023-08-08T07:22:34;7;7;
55591;PMS5003;41454;53.396;-1.510;2023-08-08T07:25:03;8;8;
55591;PMS5003;41454;53.396;-1.510;2023-08-08T07:27:31;5;5;
55591;PMS5003;41454;53.396;-1.510;2023-08-08T07:29:58;7;7;
55591;PMS5003;41454;53.396;-1.510;2023-08-08T07:32:24;6;5;
55591;PMS5003;41454;53.396;-1.510;2023-08-08T07:34:52;5;5;
55591;PMS5003;41454;53.396;-1.510;2023-08-08T07:37:19;6;6;
55591;PMS5003;41454;53.396;-1.510;2023-08-08T07:39:49;7;7;
55591;PMS5003;41454;53.396;-1.510;2023-08-08T07:42:17;7;7;
55591;PMS5003;41454;53.396;-1.510;2023-08-08T07:44:45;8;7;
55591;PMS5003;41454;53.396;-1.510;2023-08-08T07:47:12;10;8;
55591;PMS5003;41454;53.396;-1.510;2023-08-08T07:49:39;8;8;
55591;PMS5003;41454;53.396;-1.510;2023-08-08T07:52:07;8;8;
55591;PMS5003;41454;53.396;-1.510;2023-08-08T07:54:34;7;7;
55591;PMS5003;41454;53.396;-1.510;2023-08-08T07:57:02;6;6;
55591;PMS5003;41454;53.396;-1.510;2023-08-08T07:59:30;8;8;
55591;PMS5003;41454;53.396;-1.510;2023-08-08T08:01:56;9;7;
55591;PMS5003;41454;53.396;-1.510;2023-08-08T08:04:23;7;7;
55591;PMS5003;41454;53.396;-1.510;2023-08-08T08:06:51;7;7;
55591;PMS5003;41454;53.396;-1.510;2023-08-08T08:09:17;7;7;
55591;PMS5003;41454;53.396;-1.510;2023-08-08T08:11:44;8;8;
55591;PMS5003;41454;53.396;-1.510;2023-08-08T08:14:11;5;5;
55591;PMS5003;41454;53.396;-1.510;2023-08-08T08:16:38;8;7;
55591;PMS5003;41454;53.396;-1.510;2023-08-08T08:19:05;7;7;
55591;PMS5003;41454;53.396;-1.510;2023-08-08T08:21:32;7;7;
55591;PMS5003;41454;53.396;-1.510;2023-08-08T08:23:58;8;8;
55591;PMS5003;41454;53.396;-1.510;2023-08-08T08:26:26;6;5;
55591;PMS5003;41454;53.396;-1.510;2023-08-08T08:28:53;7;7;
55591;PMS5003;41454;53.396;-1.510;2023-08-08T08:31:21;9;9;
55591;PMS5003;41454;53.396;-1.510;2023-08-08T08:33:48;8;8;
55591;PMS5003;41454;53.396;-1.510;2023-08-08T08:36:15;7;7;
55591;PMS5003;41454;53.396;-1.510;2023-08-08T08:38:42;9;7;
55591;PMS5003;41454;53.396;-1.510;2023-08-08T08:41:09;7;7;
55591;PMS5003;41454;53.396;-1.510;2023-08-08T08:43:41;10;10;
55591;PMS5003;41454;53.396;-1.510;2023-08-08T08:46:09;8;8;
55591;PMS5003;41454;53.396;-1.510;2023-08-08T08:48:38;10;10;
55591;PMS5003;41454;53.396;-1.510;2023-08-08T08:51:06;7;7;
55591;PMS5003;41454;53.396;-1.510;2023-08-08T08:53:33;8;6;
55591;PMS5003;41454;53.396;-1.510;2023-08-08T08:56:00;7;7;
55591;PMS5003;41454;53.396;-1.510;2023-08-08T08:58:29;6;6;
55591;PMS5003;41454;53.396;-1.510;2023-08-08T09:00:56;8;8;
55591;PMS5003;41454;53.396;-1.510;2023-08-08T09:03:25;8;7;
55591;PMS5003;41454;53.396;-1.510;2023-08-08T09:05:52;6;6;
55591;PMS5003;41454;53.396;-1.510;2023-08-08T09:08:20;7;7;
55591;PMS5003;41454;53.396;-1.510;2023-08-08T09:10:48;5;4;
55591;PMS5003;41454;53.396;-1.510;2023-08-08T09:13:16;6;6;
55591;PMS5003;41454;53.396;-1.510;2023-08-08T09:15:44;5;5;
55591;PMS5003;41454;53.396;-1.510;2023-08-08T09:18:14;6;6;
55591;PMS5003;41454;53.396;-1.510;2023-08-08T09:20:45;6;6;
55591;PMS5003;41454;53.396;-1.510;2023-08-08T09:23:13;6;6;
55591;PMS5003;41454;53.396;-1.510;2023-08-08T09:25:41;9;7;
55591;PMS5003;41454;53.396;-1.510;2023-08-08T09:28:09;6;6;
55591;PMS5003;41454;53.396;-1.510;2023-08-08T09:30:36;5;5;
55591;PMS5003;41454;53.396;-1.510;2023-08-08T09:33:04;7;6;
55591;PMS5003;41454;53.396;-1.510;2023-08-08T09:35:32;4;3;
55591;PMS5003;41454;53.396;-1.510;2023-08-08T09:37:59;5;5;
55591;PMS5003;41454;53.396;-1.510;2023-08-08T09:40:27;3;3;
55591;PMS5003;41454;53.396;-1.510;2023-08-08T09:42:56;4;4;
55591;PMS5003;41454;53.396;-1.510;2023-08-08T09:45:23;6;5;
55591;PMS5003;41454;53.396;-1.510;2023-08-08T09:47:51;5;5;
55591;PMS5003;41454;53.396;-1.510;2023-08-08T09:50:19;5;5;
55591;PMS5003;41454;53.396;-1.510;2023-08-08T09:52:46;4;4;
55591;PMS5003;41454;53.396;-1.510;2023-08-08T09:55:13;5;4;
55591;PMS5003;41454;53.396;-1.510;2023-08-08T09:57:41;4;3;
55591;PMS5003;41454;53.396;-1.510;2023-08-08T10:00:09;5;5;
55591;PMS5003;41454;53.396;-1.510;2023-08-08T10:02:37;4;3;
55591;PMS5003;41454;53.396;-1.510;2023-08-08T10:05:04;4;4;
55591;PMS5003;41454;53.396;-1.510;2023-08-08T10:07:31;3;3;
55591;PMS5003;41454;53.396;-1.510;2023-08-08T10:09:59;3;3;
55591;PMS5003;41454;53.396;-1.510;2023-08-08T10:12:26;4;4;
55591;PMS5003;41454;53.396;-1.510;2023-08-08T10:14:54;3;3;
55591;PMS5003;41454;53.396;-1.510;2023-08-08T10:17:22;7;6;
55591;PMS5003;41454;53.396;-1.510;2023-08-08T10:19:50;3;3;
55591;PMS5003;41454;53.396;-1.510;2023-08-08T10:22:20;2;2;
55591;PMS5003;41454;53.396;-1.510;2023-08-08T10:24:50;2;2;
55591;PMS5003;41454;53.396;-1.510;2023-08-08T10:27:27;2;2;
55591;PMS5003;41454;53.396;-1.510;2023-08-08T10:30:00;2;2;
55591;PMS5003;41454;53.396;-1.510;2023-08-08T10:32:29;3;3;
55591;PMS5003;41454;53.396;-1.510;2023-08-08T10:35:05;3;3;
55591;PMS5003;41454;53.396;-1.510;2023-08-08T10:37:33;2;2;
55591;PMS5003;41454;53.396;-1.510;2023-08-08T10:40:01;3;3;
55591;PMS5003;41454;53.396;-1.510;2023-08-08T10:42:29;3;3;
55591;PMS5003;41454;53.396;-1.510;2023-08-08T10:44:57;3;3;
55591;PMS5003;41454;53.396;-1.510;2023-08-08T10:47:30;3;3;
55591;PMS5003;41454;53.396;-1.510;2023-08-08T10:49:59;4;4;
55591;PMS5003;41454;53.396;-1.510;2023-08-08T10:52:30;3;3;
55591;PMS5003;41454;53.396;-1.510;2023-08-08T10:54:57;3;3;
55591;PMS5003;41454;53.396;-1.510;2023-08-08T10:57:24;3;3;
55591;PMS5003;41454;53.396;-1.510;2023-08-08T10:59:53;5;5;
55591;PMS5003;41454;53.396;-1.510;2023-08-08T11:02:20;2;2;
55591;PMS5003;41454;53.396;-1.510;2023-08-08T11:04:48;3;3;
55591;PMS5003;41454;53.396;-1.510;2023-08-08T11:07:15;4;4;
55591;PMS5003;41454;53.396;-1.510;2023-08-08T11:09:43;4;4;
55591;PMS5003;41454;53.396;-1.510;2023-08-08T11:12:13;3;3;
55591;PMS5003;41454;53.396;-1.510;2023-08-08T11:14:40;3;3;
55591;PMS5003;41454;53.396;-1.510;2023-08-08T11:17:08;4;4;
55591;PMS5003;41454;53.396;-1.510;2023-08-08T11:19:38;4;4;
55591;PMS5003;41454;53.396;-1.510;2023-08-08T11:22:09;3;3;
55591;PMS5003;41454;53.396;-1.510;2023-08-08T11:24:37;4;4;
55591;PMS5003;41454;53.396;-1.510;2023-08-08T11:27:04;5;5;
55591;PMS5003;41454;53.396;-1.510;2023-08-08T11:29:32;4;4;
55591;PMS5003;41454;53.396;-1.510;2023-08-08T11:31:59;3;3;
55591;PMS5003;41454;53.396;-1.510;2023-08-08T11:34:29;3;3;
55591;PMS5003;41454;53.396;-1.510;2023-08-08T11:36:57;4;4;
55591;PMS5003;41454;53.396;-1.510;2023-08-08T11:39:24;5;5;
55591;PMS5003;41454;53.396;-1.510;2023-08-08T11:41:52;4;4;
55591;PMS5003;41454;53.396;-1.510;2023-08-08T11:44:20;5;4;
55591;PMS5003;41454;53.396;-1.510;2023-08-08T11:46:47;5;4;
55591;PMS5003;41454;53.396;-1.510;2023-08-08T11:49:15;4;4;
55591;PMS5003;41454;53.396;-1.510;2023-08-08T11:51:43;3;3;
55591;PMS5003;41454;53.396;-1.510;2023-08-08T11:54:11;5;4;
55591;PMS5003;41454;53.396;-1.510;2023-08-08T11:56:39;5;5;
55591;PMS5003;41454;53.396;-1.510;2023-08-08T11:59:06;6;6;
55591;PMS5003;41454;53.396;-1.510;2023-08-08T12:01:33;5;5;
55591;PMS5003;41454;53.396;-1.510;2023-08-08T12:04:04;5;5;
55591;PMS5003;41454;53.396;-1.510;2023-08-08T12:06:32;5;5;
55591;PMS5003;41454;53.396;-1.510;2023-08-08T12:09:03;5;5;
55591;PMS5003;41454;53.396;-1.510;2023-08-08T12:11:30;5;5;
55591;PMS5003;41454;53.396;-1.510;2023-08-08T12:14:01;7;5;
55591;PMS5003;41454;53.396;-1.510;2023-08-08T12:16:28;5;5;
55591;PMS5003;41454;53.396;-1.510;2023-08-08T12:18:56;7;6;
55591;PMS5003;41454;53.396;-1.510;2023-08-08T12:21:23;5;5;
55591;PMS5003;41454;53.396;-1.510;2023-08-08T12:23:51;9;9;
55591;PMS5003;41454;53.396;-1.510;2023-08-08T12:26:18;7;7;
55591;PMS5003;41454;53.396;-1.510;2023-08-08T12:28:45;6;6;
55591;PMS5003;41454;53.396;-1.510;2023-08-08T12:31:13;5;5;
55591;PMS5003;41454;53.396;-1.510;2023-08-08T12:33:40;8;7;
55591;PMS5003;41454;53.396;-1.510;2023-08-08T12:36:08;6;5;
55591;PMS5003;41454;53.396;-1.510;2023-08-08T12:38:35;5;5;
55591;PMS5003;41454;53.396;-1.510;2023-08-08T12:41:03;5;5;
55591;PMS5003;41454;53.396;-1.510;2023-08-08T12:43:30;4;4;
55591;PMS5003;41454;53.396;-1.510;2023-08-08T12:45:57;4;4;
55591;PMS5003;41454;53.396;-1.510;2023-08-08T12:48:24;5;5;
55591;PMS5003;41454;53.396;-1.510;2023-08-08T12:50:51;4;4;
55591;PMS5003;41454;53.396;-1.510;2023-08-08T12:53:18;4;3;
55591;PMS5003;41454;53.396;-1.510;2023-08-08T12:55:45;3;3;
55591;PMS5003;41454;53.396;-1.510;2023-08-08T12:58:12;3;3;
55591;PMS5003;41454;53.396;-1.510;2023-08-08T13:00:39;3;3;
55591;PMS5003;41454;53.396;-1.510;2023-08-08T13:03:06;6;5;
55591;PMS5003;41454;53.396;-1.510;2023-08-08T13:05:34;5;5;
55591;PMS5003;41454;53.396;-1.510;2023-08-08T13:08:02;5;5;
55591;PMS5003;41454;53.396;-1.510;2023-08-08T13:10:29;5;5;
55591;PMS5003;41454;53.396;-1.510;2023-08-08T13:12:57;5;5;
55591;PMS5003;41454;53.396;-1.510;2023-08-08T13:15:23;5;4;
55591;PMS5003;41454;53.396;-1.510;2023-08-08T13:17:50;5;5;
55591;PMS5003;41454;53.396;-1.510;2023-08-08T13:20:17;5;5;
55591;PMS5003;41454;53.396;-1.510;2023-08-08T13:22:45;5;5;
55591;PMS5003;41454;53.396;-1.510;2023-08-08T13:25:12;6;6;
55591;PMS5003;41454;53.396;-1.510;2023-08-08T13:27:38;3;3;
55591;PMS5003;41454;53.396;-1.510;2023-08-08T13:30:05;5;5;
55591;PMS5003;41454;53.396;-1.510;2023-08-08T13:32:33;4;4;
55591;PMS5003;41454;53.396;-1.510;2023-08-08T13:35:00;4;4;
55591;PMS5003;41454;53.396;-1.510;2023-08-08T13:37:28;4;4;
55591;PMS5003;41454;53.396;-1.510;2023-08-08T13:39:54;4;4;
55591;PMS5003;41454;53.396;-1.510;2023-08-08T13:42:21;4;4;
55591;PMS5003;41454;53.396;-1.510;2023-08-08T13:44:48;3;3;
55591;PMS5003;41454;53.396;-1.510;2023-08-08T13:47:15;4;4;
55591;PMS5003;41454;53.396;-1.510;2023-08-08T13:49:43;4;4;
55591;PMS5003;41454;53.396;-1.510;2023-08-08T13:52:10;5;3;
55591;PMS5003;41454;53.396;-1.510;2023-08-08T13:54:38;3;3;
55591;PMS5003;41454;53.396;-1.510;2023-08-08T13:57:05;3;3;
55591;PMS5003;41454;53.396;-1.510;2023-08-08T13:59:32;2;2;
55591;PMS5003;41454;53.396;-1.510;2023-08-08T14:02:00;4;3;
55591;PMS5003;41454;53.396;-1.510;2023-08-08T14:04:26;1;1;
55591;PMS5003;41454;53.396;-1.510;2023-08-08T14:06:53;2;0;
55591;PMS5003;41454;53.396;-1.510;2023-08-08T14:09:21;2;2;
55591;PMS5003;41454;53.396;-1.510;2023-08-08T14:11:47;1;1;
55591;PMS5003;41454;53.396;-1.510;2023-08-08T14:14:15;2;2;
55591;PMS5003;41454;53.396;-1.510;2023-08-08T14:16:42;1;1;
55591;PMS5003;41454;53.396;-1.510;2023-08-08T14:19:10;1;1;
55591;PMS5003;41454;53.396;-1.510;2023-08-08T14:21:37;2;2;
55591;PMS5003;41454;53.396;-1.510;2023-08-08T14:24:04;1;1;
55591;PMS5003;41454;53.396;-1.510;2023-08-08T14:26:31;2;2;
55591;PMS5003;41454;53.396;-1.510;2023-08-08T14:28:58;3;1;
55591;PMS5003;41454;53.396;-1.510;2023-08-08T14:31:25;1;1;
55591;PMS5003;41454;53.396;-1.510;2023-08-08T14:34:07;2;2;
55591;PMS5003;41454;53.396;-1.510;2023-08-08T14:36:34;1;1;
55591;PMS5003;41454;53.396;-1.510;2023-08-08T14:39:02;1;1;
55591;PMS5003;41454;53.396;-1.510;2023-08-08T14:41:29;1;1;
55591;PMS5003;41454;53.396;-1.510;2023-08-08T14:43:57;2;2;
55591;PMS5003;41454;53.396;-1.510;2023-08-08T14:46:23;1;1;
55591;PMS5003;41454;53.396;-1.510;2023-08-08T14:48:51;0;0;
55591;PMS5003;41454;53.396;-1.510;2023-08-08T14:51:19;2;2;
55591;PMS5003;41454;53.396;-1.510;2023-08-08T14:53:46;1;1;
55591;PMS5003;41454;53.396;-1.510;2023-08-08T14:56:14;1;1;
55591;PMS5003;41454;53.396;-1.510;2023-08-08T14:58:40;1;1;
55591;PMS5003;41454;53.396;-1.510;2023-08-08T15:01:07;1;1;
55591;PMS5003;41454;53.396;-1.510;2023-08-08T15:03:34;0;0;
55591;PMS5003;41454;53.396;-1.510;2023-08-08T15:06:01;0;0;
55591;PMS5003;41454;53.396;-1.510;2023-08-08T15:08:29;0;0;
55591;PMS5003;41454;53.396;-1.510;2023-08-08T15:10:55;1;1;
55591;PMS5003;41454;53.396;-1.510;2023-08-08T15:13:23;0;0;
55591;PMS5003;41454;53.396;-1.510;2023-08-08T15:15:50;0;0;
55591;PMS5003;41454;53.396;-1.510;2023-08-08T15:18:17;1;1;
55591;PMS5003;41454;53.396;-1.510;2023-08-08T15:20:45;0;0;
55591;PMS5003;41454;53.396;-1.510;2023-08-08T15:23:12;1;1;
55591;PMS5003;41454;53.396;-1.510;2023-08-08T15:25:40;2;2;
55591;PMS5003;41454;53.396;-1.510;2023-08-08T15:28:08;0;0;
55591;PMS5003;41454;53.396;-1.510;2023-08-08T15:30:36;1;1;
55591;PMS5003;41454;53.396;-1.510;2023-08-08T15:33:03;0;0;
55591;PMS5003;41454;53.396;-1.510;2023-08-08T15:35:31;1;1;
55591;PMS5003;41454;53.396;-1.510;2023-08-08T15:37:58;0;0;
55591;PMS5003;41454;53.396;-1.510;2023-08-08T15:40:25;1;1;
55591;PMS5003;41454;53.396;-1.510;2023-08-08T15:42:53;0;0;
55591;PMS5003;41454;53.396;-1.510;2023-08-08T15:45:20;0;0;
55591;PMS5003;41454;53.396;-1.510;2023-08-08T15:47:48;1;1;
55591;PMS5003;41454;53.396;-1.510;2023-08-08T15:50:16;1;1;
55591;PMS5003;41454;53.396;-1.510;2023-08-08T15:52:43;1;1;
55591;PMS5003;41454;53.396;-1.510;2023-08-08T15:55:10;1;1;
55591;PMS5003;41454;53.396;-1.510;2023-08-08T15:57:37;0;0;
55591;PMS5003;41454;53.396;-1.510;2023-08-08T16:00:06;0;0;
55591;PMS5003;41454;53.396;-1.510;2023-08-08T16:02:33;1;1;
55591;PMS5003;41454;53.396;-1.510;2023-08-08T16:05:00;1;1;
55591;PMS5003;41454;53.396;-1.510;2023-08-08T16:07:28;0;0;
55591;PMS5003;41454;53.396;-1.510;2023-08-08T16:09:55;1;1;
55591;PMS5003;41454;53.396;-1.510;2023-08-08T16:12:22;1;1;
55591;PMS5003;41454;53.396;-1.510;2023-08-08T16:14:50;1;1;
55591;PMS5003;41454;53.396;-1.510;2023-08-08T16:17:16;0;0;
55591;PMS5003;41454;53.396;-1.510;2023-08-08T16:19:43;0;0;
55591;PMS5003;41454;53.396;-1.510;2023-08-08T16:22:10;1;1;
55591;PMS5003;41454;53.396;-1.510;2023-08-08T16:24:36;1;1;
55591;PMS5003;41454;53.396;-1.510;2023-08-08T16:27:03;1;1;
55591;PMS5003;41454;53.396;-1.510;2023-08-08T16:29:31;1;1;
55591;PMS5003;41454;53.396;-1.510;2023-08-08T16:31:58;1;1;